KEGI/EGI METAR and TAF weather

Enter ICAO airport designator
Station Type Date Time Source
KEGI METAR 2021/09/28 04:56 UTC NOAA

KEGI 280456Z AUTO 00000KT 10SM CLR 19/18 A3005 RMK AO2 SLP175 T01850175 $


Station Type Date Time Source
KEGI Decoded METAR 2021/09/28 04:56 UTC NOAA

Duke Field / Eglin Auxiliary, FL, United States (KEGI) 30-39N 086-31W
Sep 28, 2021 - 12:56 AM EDT / 2021.09.28 0456 UTC
Wind: Calm:0
Visibility: 10 mile(s):0
Sky conditions: clear
Temperature: 65.3 F (18.5 C)
Dew Point: 63.5 F (17.5 C)
Relative Humidity: 93%
Pressure (altimeter): 30.05 in. Hg (1017 hPa)
ob: KEGI 280456Z AUTO 00000KT 10SM CLR 19/18 A3005 RMK AO2 SLP175 T01850175
cycle: 5

Station Type Date Time Source
KEGI TAF 2021/09/28 01:15 UTC NOAA

TAF KEGI 280100Z 2801/2907 23006KT 9999 SCT035 QNH3001INS
BECMG 2808/2809 04006KT 9999 SCT015 BKN020 BKN200 QNH3000INS
BECMG 2812/2813 10009KT 9999 SCT025 BKN200 QNH2996INS
BECMG 2818/2819 19009KT 9999 SCT030 BKN200 QNH2994INS TX31/2820Z TN18/2811Z

Example: see airport list